Princeton, Wisconsin
Current Conditions -  °F | °C
As of 11:56 PM on Saturday 22 Nov 2014 (Local Time) from KY50 Reporting Station
Moderate Fog Moderate Fog  
Wind Chill: 41°   Ceiling: 200
Heat Index: 44°   Visibility: 0.25mi
Dew Point: 44°   Wind: 5mph
Humidity: 100%   Direction: 150°SSE
Pressure: 29.7"   Gusts: NA
Location:  43.85°N, 89.12°W
Report Text: KY50 230556Z AUTO 15004KT 1/4SM FG OVC002 07/07 A2970 RMK AO2 TSNO 56016 T00660066 10066 20033 400660005 SLP061
Loading
Personal Weather Stations






























Interactive Weather Map New forecast layout! Learn more

10-Day Weather Forecast

Advertisements
Track Severe Weather on mobile